PWSweather.com
Personal Weather Stations
Station Observations
PICKERING
North Yorkshire, PickeringGB

North YorkshirePickeringGB

Lat: 54.2494, Lon: -0.7725

Elevation: 192

Station Type: Oregon Scientific WMR100

http://www.yorkshirewalker.co.uk/weather/

High Low Average
Temperature 52.5°F11.4°C 44.6°F7.0°C 47.3°F8.5°C
Dew Point 48.2°F9.0°C 33.8°F1.0°C 40.8°F4.9°C
Winds 14.6 mph 23.5 kmh Calm Calm 7.0 mph WSW11.3 kmh WSW
Wind Gusts 22.8 mph36.7 kmh -- 11.0 mph17.7 kmh
Humidity 85% 64% 78%
Pressure 30.30 in1026.1 mb 29.92 in1013.2 mb -
Precipitation 0.13 in3.3 mm - -
Hour Temp Dew Point Humidity Winds Wind Gusts Pressure Precip Precip Rate Daily Precip Total
12:00 AM 45.0°F7.2°C 41.0°F5.0°C 85% 0.9 mph SW1.4 kmh SW 2.5 mph4.0 kmh 30.30 in1026.1 mb 0.00 in0.0 mm 0.00 in0.0 mm 0.00 in0.0 mm
12:05 AM 45.0°F7.2°C 41.0°F5.0°C 85% 0.5 mph SW0.8 kmh SW 2.2 mph3.5 kmh 30.30 in1026.1 mb 0.00 in0.0 mm 0.00 in0.0 mm 0.00 in0.0 mm
12:10 AM 45.0°F7.2°C 41.0°F5.0°C 85% 0.6 mph SSW1.0 kmh SSW 2.0 mph3.2 kmh 30.30 in1026.1 mb 0.00 in0.0 mm 0.00 in0.0 mm 0.00 in0.0 mm
12:15 AM 45.0°F7.2°C 41.0°F5.0°C 85% 1.5 mph SSW2.4 kmh SSW 3.6 mph5.8 kmh 30.30 in1026.1 mb 0.00 in0.0 mm 0.00 in0.0 mm 0.00 in0.0 mm
12:20 AM 45.0°F7.2°C 41.0°F5.0°C 85% 1.8 mph SSW2.9 kmh SSW 3.6 mph5.8 kmh 30.30 in1026.1 mb 0.00 in0.0 mm 0.00 in0.0 mm 0.00 in0.0 mm
12:25 AM 45.0°F7.2°C 41.0°F5.0°C 85% 1.0 mph SW1.6 kmh SW 2.5 mph4.0 kmh 30.30 in1026.1 mb 0.00 in0.0 mm 0.00 in0.0 mm 0.00 in0.0 mm
12:30 AM 45.0°F7.2°C 41.0°F5.0°C 85% 1.2 mph SW1.9 kmh SW 2.5 mph4.0 kmh 30.30 in1026.1 mb 0.00 in0.0 mm 0.00 in0.0 mm 0.00 in0.0 mm
12:35 AM 45.0°F7.2°C 41.0°F5.0°C 85% 1.3 mph SSW2.1 kmh SSW 2.5 mph4.0 kmh 30.30 in1026.1 mb 0.00 in0.0 mm 0.00 in0.0 mm 0.00 in0.0 mm
12:40 AM 45.0°F7.2°C 41.0°F5.0°C 85% 0.9 mph SW1.4 kmh SW 1.6 mph2.6 kmh 30.30 in1026.1 mb 0.00 in0.0 mm 0.00 in0.0 mm 0.00 in0.0 mm
12:45 AM 45.0°F7.2°C 41.0°F5.0°C 85% 1.1 mph SW1.8 kmh SW 1.6 mph2.6 kmh 30.30 in1026.1 mb 0.00 in0.0 mm 0.00 in0.0 mm 0.00 in0.0 mm
12:50 AM 44.8°F7.1°C 41.0°F5.0°C 85% 1.5 mph SW2.4 kmh SW 3.6 mph5.8 kmh 30.30 in1026.1 mb 0.00 in0.0 mm 0.00 in0.0 mm 0.00 in0.0 mm
12:55 AM 44.8°F7.1°C 41.0°F5.0°C 85% 1.8 mph WSW2.9 kmh WSW 3.6 mph5.8 kmh 30.30 in1026.1 mb 0.00 in0.0 mm 0.00 in0.0 mm 0.00 in0.0 mm
01:00 AM 44.8°F7.1°C 41.0°F5.0°C 85% 1.4 mph SW2.3 kmh SW 2.5 mph4.0 kmh 30.30 in1026.1 mb 0.00 in0.0 mm 0.00 in0.0 mm 0.00 in0.0 mm
01:05 AM 45.0°F7.2°C 41.0°F5.0°C 85% 0.9 mph WSW1.4 kmh WSW 1.6 mph2.6 kmh 30.30 in1026.1 mb 0.00 in0.0 mm 0.00 in0.0 mm 0.00 in0.0 mm
01:10 AM 45.0°F7.2°C 41.0°F5.0°C 85% 1.4 mph WSW2.3 kmh WSW 3.4 mph5.5 kmh 30.30 in1026.1 mb 0.00 in0.0 mm 0.00 in0.0 mm 0.00 in0.0 mm
01:15 AM 45.0°F7.2°C 41.0°F5.0°C 85% 2.0 mph WSW3.2 kmh WSW 3.4 mph5.5 kmh 30.30 in1026.1 mb 0.00 in0.0 mm 0.00 in0.0 mm 0.00 in0.0 mm
01:20 AM 45.0°F7.2°C 41.0°F5.0°C 85% 2.1 mph WSW3.4 kmh WSW 3.1 mph5.0 kmh 30.30 in1026.1 mb 0.00 in0.0 mm 0.00 in0.0 mm 0.00 in0.0 mm
01:25 AM 45.0°F7.2°C 41.0°F5.0°C 85% 1.6 mph WSW2.6 kmh WSW 2.9 mph4.7 kmh 30.30 in1026.1 mb 0.00 in0.0 mm 0.00 in0.0 mm 0.00 in0.0 mm
01:30 AM 45.1°F7.3°C 41.0°F5.0°C 85% 1.1 mph WSW1.8 kmh WSW 2.9 mph4.7 kmh 30.30 in1026.1 mb 0.00 in0.0 mm 0.00 in0.0 mm 0.00 in0.0 mm
01:35 AM 45.0°F7.2°C 41.0°F5.0°C 85% 1.0 mph SW1.6 kmh SW 2.0 mph3.2 kmh 30.30 in1026.1 mb 0.00 in0.0 mm 0.00 in0.0 mm 0.00 in0.0 mm
01:40 AM 45.0°F7.2°C 41.0°F5.0°C 85% 1.0 mph SW1.6 kmh SW 2.0 mph3.2 kmh 30.30 in1026.1 mb 0.00 in0.0 mm 0.00 in0.0 mm 0.00 in0.0 mm
01:45 AM 45.0°F7.2°C 41.0°F5.0°C 85% 1.3 mph WSW2.1 kmh WSW 5.6 mph9.0 kmh 30.30 in1026.1 mb 0.00 in0.0 mm 0.00 in0.0 mm 0.00 in0.0 mm
01:50 AM 45.1°F7.3°C 41.0°F5.0°C 85% 1.8 mph WSW2.9 kmh WSW 5.6 mph9.0 kmh 30.30 in1026.1 mb 0.00 in0.0 mm 0.00 in0.0 mm 0.00 in0.0 mm
01:55 AM 45.1°F7.3°C 41.0°F5.0°C 85% 1.6 mph WSW2.6 kmh WSW 3.4 mph5.5 kmh 30.30 in1026.1 mb 0.00 in0.0 mm 0.00 in0.0 mm 0.00 in0.0 mm
02:00 AM 45.1°F7.3°C 41.0°F5.0°C 85% 1.6 mph WSW2.6 kmh WSW 3.4 mph5.5 kmh 30.30 in1026.1 mb 0.00 in0.0 mm 0.00 in0.0 mm 0.00 in0.0 mm
02:05 AM 45.1°F7.3°C 41.0°F5.0°C 85% 1.3 mph SW2.1 kmh SW 2.9 mph4.7 kmh 30.30 in1026.1 mb 0.00 in0.0 mm 0.00 in0.0 mm 0.00 in0.0 mm
02:10 AM 44.8°F7.1°C 41.0°F5.0°C 85% 0.9 mph WSW1.4 kmh WSW 1.3 mph2.1 kmh 30.30 in1026.1 mb 0.00 in0.0 mm 0.00 in0.0 mm 0.00 in0.0 mm
02:15 AM 44.8°F7.1°C 41.0°F5.0°C 85% 1.3 mph WSW2.1 kmh WSW 2.5 mph4.0 kmh 30.30 in1026.1 mb 0.00 in0.0 mm 0.00 in0.0 mm 0.00 in0.0 mm
02:20 AM 45.0°F7.2°C 41.0°F5.0°C 85% 1.7 mph WSW2.7 kmh WSW 2.9 mph4.7 kmh 30.30 in1026.1 mb 0.00 in0.0 mm 0.00 in0.0 mm 0.00 in0.0 mm
02:25 AM 45.1°F7.3°C 41.0°F5.0°C 85% 2.0 mph WSW3.2 kmh WSW 2.9 mph4.7 kmh 30.27 in1025.1 mb 0.00 in0.0 mm 0.00 in0.0 mm 0.00 in0.0 mm
02:30 AM 45.1°F7.3°C 41.0°F5.0°C 85% 2.0 mph WSW3.2 kmh WSW 2.7 mph4.3 kmh 30.27 in1025.1 mb 0.00 in0.0 mm 0.00 in0.0 mm 0.00 in0.0 mm
02:35 AM 45.3°F7.4°C 41.0°F5.0°C 85% 2.1 mph SW3.4 kmh SW 3.1 mph5.0 kmh 30.27 in1025.1 mb 0.00 in0.0 mm 0.00 in0.0 mm 0.00 in0.0 mm
02:40 AM 45.5°F7.5°C 42.8°F6.0°C 85% 3.1 mph SSW5.0 kmh SSW 4.7 mph7.6 kmh 30.27 in1025.1 mb 0.00 in0.0 mm 0.00 in0.0 mm 0.00 in0.0 mm
02:45 AM 45.5°F7.5°C 42.8°F6.0°C 85% 3.2 mph SSW5.1 kmh SSW 4.7 mph7.6 kmh 30.27 in1025.1 mb 0.00 in0.0 mm 0.00 in0.0 mm 0.00 in0.0 mm
02:50 AM 45.7°F7.6°C 42.8°F6.0°C 85% 2.4 mph SW3.9 kmh SW 3.8 mph6.1 kmh 30.27 in1025.1 mb 0.00 in0.0 mm 0.00 in0.0 mm 0.00 in0.0 mm
02:55 AM 45.9°F7.7°C 42.8°F6.0°C 85% 2.4 mph SW3.9 kmh SW 6.5 mph10.5 kmh 30.27 in1025.1 mb 0.00 in0.0 mm 0.00 in0.0 mm 0.00 in0.0 mm
03:00 AM 45.9°F7.7°C 42.8°F6.0°C 85% 2.3 mph SW3.7 kmh SW 6.5 mph10.5 kmh 30.27 in1025.1 mb 0.00 in0.0 mm 0.00 in0.0 mm 0.00 in0.0 mm
03:05 AM 46.0°F7.8°C 42.8°F6.0°C 85% 2.2 mph SSW3.5 kmh SSW 3.6 mph5.8 kmh 30.27 in1025.1 mb 0.00 in0.0 mm 0.00 in0.0 mm 0.00 in0.0 mm
03:10 AM 45.9°F7.7°C 41.0°F5.0°C 84% 1.9 mph SSW3.1 kmh SSW 2.9 mph4.7 kmh 30.27 in1025.1 mb 0.00 in0.0 mm 0.00 in0.0 mm 0.00 in0.0 mm
03:15 AM 46.0°F7.8°C 41.0°F5.0°C 84% 2.6 mph SSW4.2 kmh SSW 4.7 mph7.6 kmh 30.27 in1025.1 mb 0.00 in0.0 mm 0.00 in0.0 mm 0.00 in0.0 mm
03:20 AM 46.0°F7.8°C 41.0°F5.0°C 84% 2.5 mph SSW4.0 kmh SSW 4.7 mph7.6 kmh 30.27 in1025.1 mb 0.00 in0.0 mm 0.00 in0.0 mm 0.00 in0.0 mm
03:25 AM 45.9°F7.7°C 41.0°F5.0°C 84% 1.3 mph SSW2.1 kmh SSW 3.6 mph5.8 kmh 30.27 in1025.1 mb 0.00 in0.0 mm 0.00 in0.0 mm 0.00 in0.0 mm
03:30 AM 46.0°F7.8°C 41.0°F5.0°C 84% 1.4 mph S2.3 kmh S 3.4 mph5.5 kmh 30.27 in1025.1 mb 0.00 in0.0 mm 0.00 in0.0 mm 0.00 in0.0 mm
03:35 AM 46.0°F7.8°C 41.0°F5.0°C 84% 1.5 mph S2.4 kmh S 2.7 mph4.3 kmh 30.27 in1025.1 mb 0.00 in0.0 mm 0.00 in0.0 mm 0.00 in0.0 mm
03:40 AM 45.9°F7.7°C 41.0°F5.0°C 84% 1.4 mph SSE2.3 kmh SSE 2.0 mph3.2 kmh 30.27 in1025.1 mb 0.00 in0.0 mm 0.00 in0.0 mm 0.00 in0.0 mm
03:45 AM 45.9°F7.7°C 41.0°F5.0°C 84% 1.9 mph S3.1 kmh S 3.4 mph5.5 kmh 30.27 in1025.1 mb 0.00 in0.0 mm 0.00 in0.0 mm 0.00 in0.0 mm
03:50 AM 45.9°F7.7°C 41.0°F5.0°C 84% 2.2 mph S3.5 kmh S 4.0 mph6.4 kmh 30.27 in1025.1 mb 0.00 in0.0 mm 0.00 in0.0 mm 0.00 in0.0 mm
03:55 AM 45.9°F7.7°C 41.0°F5.0°C 84% 1.6 mph S2.6 kmh S 4.0 mph6.4 kmh 30.24 in1024.0 mb 0.00 in0.0 mm 0.00 in0.0 mm 0.00 in0.0 mm
04:00 AM 45.9°F7.7°C 41.0°F5.0°C 84% 0.6 mph S1.0 kmh S 1.1 mph1.8 kmh 30.24 in1024.0 mb 0.00 in0.0 mm 0.00 in0.0 mm 0.00 in0.0 mm
04:05 AM 45.9°F7.7°C 41.0°F5.0°C 84% 0.6 mph S1.0 kmh S 1.1 mph1.8 kmh 30.24 in1024.0 mb 0.00 in0.0 mm 0.00 in0.0 mm 0.00 in0.0 mm
04:10 AM 45.9°F7.7°C 41.0°F5.0°C 84% Calm Calm -- 30.24 in1024.0 mb 0.00 in0.0 mm 0.00 in0.0 mm 0.00 in0.0 mm
04:15 AM 45.9°F7.7°C 41.0°F5.0°C 84% 1.0 mph SSW1.6 kmh SSW 2.5 mph4.0 kmh 30.24 in1024.0 mb 0.00 in0.0 mm 0.00 in0.0 mm 0.00 in0.0 mm
04:20 AM 45.9°F7.7°C 41.0°F5.0°C 84% 2.0 mph S3.2 kmh S 4.0 mph6.4 kmh 30.24 in1024.0 mb 0.00 in0.0 mm 0.00 in0.0 mm 0.00 in0.0 mm
04:25 AM 45.9°F7.7°C 41.0°F5.0°C 84% 2.1 mph S3.4 kmh S 4.0 mph6.4 kmh 30.21 in1023.0 mb 0.00 in0.0 mm 0.00 in0.0 mm 0.00 in0.0 mm
04:30 AM 45.9°F7.7°C 41.0°F5.0°C 84% 1.2 mph SSE1.9 kmh SSE 3.1 mph5.0 kmh 30.21 in1023.0 mb 0.00 in0.0 mm 0.00 in0.0 mm 0.00 in0.0 mm
04:35 AM 45.7°F7.6°C 41.0°F5.0°C 84% 0.9 mph SSE1.4 kmh SSE 1.3 mph2.1 kmh 30.21 in1023.0 mb 0.00 in0.0 mm 0.00 in0.0 mm 0.00 in0.0 mm
04:40 AM 45.5°F7.5°C 41.0°F5.0°C 84% 1.3 mph S2.1 kmh S 1.3 mph2.1 kmh 30.21 in1023.0 mb 0.00 in0.0 mm 0.00 in0.0 mm 0.00 in0.0 mm
04:45 AM 45.5°F7.5°C 41.0°F5.0°C 84% 1.5 mph SSE2.4 kmh SSE 2.7 mph4.3 kmh 30.21 in1023.0 mb 0.00 in0.0 mm 0.00 in0.0 mm 0.00 in0.0 mm
04:50 AM 45.3°F7.4°C 41.0°F5.0°C 84% 1.0 mph SSE1.6 kmh SSE 2.7 mph4.3 kmh 30.21 in1023.0 mb 0.00 in0.0 mm 0.00 in0.0 mm 0.00 in0.0 mm
04:55 AM 45.3°F7.4°C 41.0°F5.0°C 84% 1.0 mph S1.6 kmh S 2.9 mph4.7 kmh 30.18 in1022.0 mb 0.00 in0.0 mm 0.00 in0.0 mm 0.00 in0.0 mm
05:00 AM 45.5°F7.5°C 42.8°F6.0°C 85% 1.6 mph S2.6 kmh S 2.9 mph4.7 kmh 30.18 in1022.0 mb 0.00 in0.0 mm 0.00 in0.0 mm 0.00 in0.0 mm
05:05 AM 45.5°F7.5°C 41.0°F5.0°C 84% 1.9 mph SSE3.1 kmh SSE 3.6 mph5.8 kmh 30.18 in1022.0 mb 0.00 in0.0 mm 0.00 in0.0 mm 0.00 in0.0 mm
05:10 AM 45.5°F7.5°C 41.0°F5.0°C 84% 1.9 mph SE3.1 kmh SE 3.6 mph5.8 kmh 30.18 in1022.0 mb 0.00 in0.0 mm 0.00 in0.0 mm 0.00 in0.0 mm
05:15 AM 45.5°F7.5°C 41.0°F5.0°C 84% 2.1 mph SE3.4 kmh SE 3.6 mph5.8 kmh 30.18 in1022.0 mb 0.00 in0.0 mm 0.00 in0.0 mm 0.00 in0.0 mm
05:20 AM 45.5°F7.5°C 41.0°F5.0°C 84% 2.8 mph SSE4.5 kmh SSE 4.0 mph6.4 kmh 30.18 in1022.0 mb 0.00 in0.0 mm 0.00 in0.0 mm 0.00 in0.0 mm
05:25 AM 45.5°F7.5°C 41.0°F5.0°C 84% 3.8 mph SSW6.1 kmh SSW 6.3 mph10.1 kmh 30.18 in1022.0 mb 0.00 in0.0 mm 0.00 in0.0 mm 0.00 in0.0 mm
05:30 AM 45.7°F7.6°C 41.0°F5.0°C 84% 3.6 mph SW5.8 kmh SW 6.3 mph10.1 kmh 30.18 in1022.0 mb 0.00 in0.0 mm 0.00 in0.0 mm 0.00 in0.0 mm
05:35 AM 45.9°F7.7°C 41.0°F5.0°C 84% 2.7 mph SW4.3 kmh SW 6.3 mph10.1 kmh 30.18 in1022.0 mb 0.00 in0.0 mm 0.00 in0.0 mm 0.00 in0.0 mm
05:40 AM 45.9°F7.7°C 41.0°F5.0°C 84% 2.7 mph SW4.3 kmh SW 4.7 mph7.6 kmh 30.15 in1021.0 mb 0.00 in0.0 mm 0.00 in0.0 mm 0.00 in0.0 mm
05:45 AM 46.0°F7.8°C 41.0°F5.0°C 84% 3.1 mph SW5.0 kmh SW 7.2 mph11.6 kmh 30.15 in1021.0 mb 0.00 in0.0 mm 0.00 in0.0 mm 0.00 in0.0 mm
05:50 AM 46.0°F7.8°C 41.0°F5.0°C 84% 3.7 mph WSW6.0 kmh WSW 10.7 mph17.2 kmh 30.15 in1021.0 mb 0.00 in0.0 mm 0.00 in0.0 mm 0.00 in0.0 mm
05:55 AM 46.0°F7.8°C 41.0°F5.0°C 84% 3.7 mph SW6.0 kmh SW 10.7 mph17.2 kmh 30.15 in1021.0 mb 0.00 in0.0 mm 0.00 in0.0 mm 0.00 in0.0 mm
06:00 AM 46.0°F7.8°C 41.0°F5.0°C 84% 3.3 mph SW5.3 kmh SW 5.4 mph8.7 kmh 30.15 in1021.0 mb 0.00 in0.0 mm 0.00 in0.0 mm 0.00 in0.0 mm
06:05 AM 46.0°F7.8°C 41.0°F5.0°C 84% 3.5 mph SW5.6 kmh SW 5.6 mph9.0 kmh 30.15 in1021.0 mb 0.00 in0.0 mm 0.00 in0.0 mm 0.00 in0.0 mm
06:10 AM 45.9°F7.7°C 41.0°F5.0°C 84% 3.5 mph SW5.6 kmh SW 6.0 mph9.7 kmh 30.15 in1021.0 mb 0.00 in0.0 mm 0.00 in0.0 mm 0.00 in0.0 mm
06:15 AM 45.9°F7.7°C 41.0°F5.0°C 84% 3.5 mph SW5.6 kmh SW 6.0 mph9.7 kmh 30.15 in1021.0 mb 0.00 in0.0 mm 0.00 in0.0 mm 0.00 in0.0 mm
06:20 AM 45.9°F7.7°C 41.0°F5.0°C 83% 3.4 mph SW5.5 kmh SW 5.8 mph9.3 kmh 30.15 in1021.0 mb 0.00 in0.0 mm 0.00 in0.0 mm 0.00 in0.0 mm
06:25 AM 45.9°F7.7°C 41.0°F5.0°C 83% 2.6 mph SSW4.2 kmh SSW 4.9 mph7.9 kmh 30.15 in1021.0 mb 0.00 in0.0 mm 0.00 in0.0 mm 0.00 in0.0 mm
06:30 AM 45.9°F7.7°C 41.0°F5.0°C 83% 2.4 mph SSW3.9 kmh SSW 4.9 mph7.9 kmh 30.15 in1021.0 mb 0.00 in0.0 mm 0.00 in0.0 mm 0.00 in0.0 mm
06:35 AM 45.9°F7.7°C 41.0°F5.0°C 83% 2.1 mph SW3.4 kmh SW 4.3 mph6.9 kmh 30.15 in1021.0 mb 0.00 in0.0 mm 0.00 in0.0 mm 0.00 in0.0 mm
06:40 AM 45.9°F7.7°C 41.0°F5.0°C 84% 2.1 mph SW3.4 kmh SW 2.9 mph4.7 kmh 30.15 in1021.0 mb 0.00 in0.0 mm 0.00 in0.0 mm 0.00 in0.0 mm
06:45 AM 45.9°F7.7°C 41.0°F5.0°C 84% 2.2 mph SW3.5 kmh SW 2.7 mph4.3 kmh 30.15 in1021.0 mb 0.00 in0.0 mm 0.00 in0.0 mm 0.00 in0.0 mm
06:50 AM 45.9°F7.7°C 41.0°F5.0°C 84% 2.7 mph SW4.3 kmh SW 5.8 mph9.3 kmh 30.15 in1021.0 mb 0.00 in0.0 mm 0.00 in0.0 mm 0.00 in0.0 mm
06:55 AM 45.9°F7.7°C 41.0°F5.0°C 84% 2.4 mph SW3.9 kmh SW 5.8 mph9.3 kmh 30.15 in1021.0 mb 0.00 in0.0 mm 0.00 in0.0 mm 0.00 in0.0 mm
07:00 AM 45.9°F7.7°C 41.0°F5.0°C 84% 1.9 mph WSW3.1 kmh WSW 3.1 mph5.0 kmh 30.15 in1021.0 mb 0.00 in0.0 mm 0.00 in0.0 mm 0.00 in0.0 mm
07:05 AM 45.9°F7.7°C 41.0°F5.0°C 84% 1.7 mph SW2.7 kmh SW 3.1 mph5.0 kmh 30.15 in1021.0 mb 0.00 in0.0 mm 0.00 in0.0 mm 0.00 in0.0 mm
07:10 AM 45.9°F7.7°C 41.0°F5.0°C 84% 2.3 mph SW3.7 kmh SW 4.0 mph6.4 kmh 30.15 in1021.0 mb 0.00 in0.0 mm 0.00 in0.0 mm 0.00 in0.0 mm
07:15 AM 45.9°F7.7°C 41.0°F5.0°C 84% 2.5 mph SW4.0 kmh SW 4.0 mph6.4 kmh 30.15 in1021.0 mb 0.00 in0.0 mm 0.00 in0.0 mm 0.00 in0.0 mm
07:20 AM 45.9°F7.7°C 41.0°F5.0°C 84% 3.2 mph SW5.1 kmh SW 5.6 mph9.0 kmh 30.15 in1021.0 mb 0.00 in0.0 mm 0.00 in0.0 mm 0.00 in0.0 mm
07:25 AM 46.0°F7.8°C 41.0°F5.0°C 84% 3.0 mph WSW4.8 kmh WSW 5.6 mph9.0 kmh 30.15 in1021.0 mb 0.00 in0.0 mm 0.00 in0.0 mm 0.00 in0.0 mm
07:30 AM 46.0°F7.8°C 41.0°F5.0°C 84% 2.5 mph SW4.0 kmh SW 5.4 mph8.7 kmh 30.15 in1021.0 mb 0.00 in0.0 mm 0.00 in0.0 mm 0.00 in0.0 mm
07:35 AM 46.0°F7.8°C 41.0°F5.0°C 84% 2.8 mph SSW4.5 kmh SSW 5.6 mph9.0 kmh 30.15 in1021.0 mb 0.00 in0.0 mm 0.00 in0.0 mm 0.00 in0.0 mm
07:40 AM 46.0°F7.8°C 41.0°F5.0°C 84% 3.1 mph SSW5.0 kmh SSW 5.6 mph9.0 kmh 30.12 in1020.0 mb 0.00 in0.0 mm 0.00 in0.0 mm 0.00 in0.0 mm
07:45 AM 46.2°F7.9°C 42.8°F6.0°C 84% 2.5 mph SW4.0 kmh SW 3.8 mph6.1 kmh 30.12 in1020.0 mb 0.00 in0.0 mm 0.00 in0.0 mm 0.00 in0.0 mm
07:50 AM 46.2°F7.9°C 42.8°F6.0°C 84% 3.0 mph WSW4.8 kmh WSW 6.5 mph10.5 kmh 30.12 in1020.0 mb 0.00 in0.0 mm 0.00 in0.0 mm 0.00 in0.0 mm
07:55 AM 46.2°F7.9°C 42.8°F6.0°C 84% 3.2 mph SW5.1 kmh SW 6.5 mph10.5 kmh 30.15 in1021.0 mb 0.00 in0.0 mm 0.00 in0.0 mm 0.00 in0.0 mm
08:00 AM 46.2°F7.9°C 42.8°F6.0°C 84% 2.3 mph SW3.7 kmh SW 5.4 mph8.7 kmh 30.15 in1021.0 mb 0.00 in0.0 mm 0.00 in0.0 mm 0.00 in0.0 mm
08:05 AM 46.4°F8.0°C 42.8°F6.0°C 84% 2.6 mph SW4.2 kmh SW 5.4 mph8.7 kmh 30.15 in1021.0 mb 0.00 in0.0 mm 0.00 in0.0 mm 0.00 in0.0 mm
08:10 AM 46.4°F8.0°C 42.8°F6.0°C 84% 3.6 mph SW5.8 kmh SW 6.0 mph9.7 kmh 30.12 in1020.0 mb 0.00 in0.0 mm 0.00 in0.0 mm 0.00 in0.0 mm
08:15 AM 46.8°F8.2°C 42.8°F6.0°C 84% 4.4 mph W7.1 kmh W 6.5 mph10.5 kmh 30.12 in1020.0 mb 0.00 in0.0 mm 0.00 in0.0 mm 0.00 in0.0 mm
08:20 AM 46.8°F8.2°C 42.8°F6.0°C 84% 4.4 mph W7.1 kmh W 6.5 mph10.5 kmh 30.12 in1020.0 mb 0.00 in0.0 mm 0.00 in0.0 mm 0.00 in0.0 mm
08:25 AM 46.8°F8.2°C 42.8°F6.0°C 84% 4.1 mph SW6.6 kmh SW 7.6 mph12.2 kmh 30.12 in1020.0 mb 0.00 in0.0 mm 0.00 in0.0 mm 0.00 in0.0 mm
08:30 AM 46.8°F8.2°C 42.8°F6.0°C 84% 3.9 mph SSW6.3 kmh SSW 7.6 mph12.2 kmh 30.12 in1020.0 mb 0.00 in0.0 mm 0.00 in0.0 mm 0.00 in0.0 mm
08:35 AM 46.9°F8.3°C 42.8°F6.0°C 84% 5.0 mph SSW8.0 kmh SSW 10.3 mph16.6 kmh 30.12 in1020.0 mb 0.00 in0.0 mm 0.00 in0.0 mm 0.00 in0.0 mm
08:40 AM 47.1°F8.4°C 42.8°F6.0°C 85% 5.5 mph SSW8.9 kmh SSW 10.3 mph16.6 kmh 30.09 in1019.0 mb 0.00 in0.0 mm 0.00 in0.0 mm 0.00 in0.0 mm
08:45 AM 47.3°F8.5°C 44.6°F7.0°C 85% 4.9 mph SSW7.9 kmh SSW 4.9 mph7.9 kmh 30.09 in1019.0 mb 0.00 in0.0 mm 0.00 in0.0 mm 0.00 in0.0 mm
08:50 AM 47.5°F8.6°C 44.6°F7.0°C 85% 4.4 mph SSW7.1 kmh SSW 4.9 mph7.9 kmh 30.09 in1019.0 mb 0.00 in0.0 mm 0.00 in0.0 mm 0.00 in0.0 mm
08:55 AM 47.5°F8.6°C 44.6°F7.0°C 85% 3.6 mph SSW5.8 kmh SSW 4.9 mph7.9 kmh 30.09 in1019.0 mb 0.00 in0.0 mm 0.00 in0.0 mm 0.00 in0.0 mm
09:00 AM 47.5°F8.6°C 44.6°F7.0°C 85% 3.1 mph SSW5.0 kmh SSW 3.1 mph5.0 kmh 30.09 in1019.0 mb 0.00 in0.0 mm 0.00 in0.0 mm 0.00 in0.0 mm
09:05 AM 47.3°F8.5°C 44.6°F7.0°C 85% 3.2 mph SSW5.1 kmh SSW 3.4 mph5.5 kmh 30.09 in1019.0 mb 0.00 in0.0 mm 0.00 in0.0 mm 0.00 in0.0 mm
09:10 AM 47.1°F8.4°C 42.8°F6.0°C 85% 2.8 mph SSW4.5 kmh SSW 3.8 mph6.1 kmh 30.09 in1019.0 mb 0.00 in0.0 mm 0.00 in0.0 mm 0.00 in0.0 mm
09:15 AM 47.1°F8.4°C 42.8°F6.0°C 85% 2.1 mph SW3.4 kmh SW 3.8 mph6.1 kmh 30.09 in1019.0 mb 0.00 in0.0 mm 0.00 in0.0 mm 0.00 in0.0 mm
09:20 AM 47.3°F8.5°C 44.6°F7.0°C 85% 1.6 mph SW2.6 kmh SW 1.6 mph2.6 kmh 30.09 in1019.0 mb 0.00 in0.0 mm 0.00 in0.0 mm 0.00 in0.0 mm
09:25 AM 47.5°F8.6°C 44.6°F7.0°C 85% 2.0 mph SW3.2 kmh SW 3.6 mph5.8 kmh 30.09 in1019.0 mb 0.00 in0.0 mm 0.00 in0.0 mm 0.00 in0.0 mm
09:30 AM 48.0°F8.9°C 44.6°F7.0°C 85% 3.9 mph SSW6.3 kmh SSW 6.0 mph9.7 kmh 30.09 in1019.0 mb 0.00 in0.0 mm 0.00 in0.0 mm 0.00 in0.0 mm
09:35 AM 48.4°F9.1°C 44.6°F7.0°C 85% 5.2 mph SW8.4 kmh SW 12.5 mph20.1 kmh 30.09 in1019.0 mb 0.00 in0.0 mm 0.00 in0.0 mm 0.00 in0.0 mm
09:40 AM 48.6°F9.2°C 44.6°F7.0°C 85% 5.7 mph WSW9.2 kmh WSW 12.5 mph20.1 kmh 30.07 in1018.3 mb 0.00 in0.0 mm 0.00 in0.0 mm 0.00 in0.0 mm
09:45 AM 49.1°F9.5°C 46.4°F8.0°C 85% 7.2 mph WSW11.6 kmh WSW 11.0 mph17.7 kmh 30.07 in1018.3 mb 0.00 in0.0 mm 0.00 in0.0 mm 0.00 in0.0 mm
09:50 AM 49.1°F9.5°C 46.4°F8.0°C 85% 7.9 mph SW12.7 kmh SW 11.0 mph17.7 kmh 30.07 in1018.3 mb 0.00 in0.0 mm 0.00 in0.0 mm 0.00 in0.0 mm
09:55 AM 49.3°F9.6°C 46.4°F8.0°C 85% 6.8 mph WSW10.9 kmh WSW 8.7 mph14.0 kmh 30.07 in1018.3 mb 0.00 in0.0 mm 0.00 in0.0 mm 0.00 in0.0 mm
10:00 AM 49.3°F9.6°C 46.4°F8.0°C 85% 6.7 mph SW10.8 kmh SW 9.6 mph15.4 kmh 30.07 in1018.3 mb 0.00 in0.0 mm 0.00 in0.0 mm 0.00 in0.0 mm
10:05 AM 49.5°F9.7°C 46.4°F8.0°C 85% 6.2 mph SW10.0 kmh SW 9.6 mph15.4 kmh 30.07 in1018.3 mb 0.00 in0.0 mm 0.00 in0.0 mm 0.00 in0.0 mm
10:10 AM 49.6°F9.8°C 46.4°F8.0°C 85% 6.3 mph WSW10.1 kmh WSW 7.6 mph12.2 kmh 30.07 in1018.3 mb 0.00 in0.0 mm 0.00 in0.0 mm 0.00 in0.0 mm
10:15 AM 49.8°F9.9°C 46.4°F8.0°C 85% 7.4 mph WSW11.9 kmh WSW 10.1 mph16.3 kmh 30.07 in1018.3 mb 0.00 in0.0 mm 0.00 in0.0 mm 0.00 in0.0 mm
10:20 AM 50.2°F10.1°C 46.4°F8.0°C 85% 9.1 mph WSW14.6 kmh WSW 13.9 mph22.4 kmh 30.07 in1018.3 mb 0.00 in0.0 mm 0.00 in0.0 mm 0.00 in0.0 mm
10:25 AM 50.4°F10.2°C 46.4°F8.0°C 85% 10.7 mph WSW17.2 kmh WSW 13.9 mph22.4 kmh 30.04 in1017.3 mb 0.00 in0.0 mm 0.00 in0.0 mm 0.00 in0.0 mm
10:30 AM 50.4°F10.2°C 46.4°F8.0°C 85% 12.8 mph WSW20.6 kmh WSW 19.9 mph32.0 kmh 30.04 in1017.3 mb 0.00 in0.0 mm 0.00 in0.0 mm 0.00 in0.0 mm
10:35 AM 50.5°F10.3°C 46.4°F8.0°C 85% 13.6 mph WSW21.9 kmh WSW 19.9 mph32.0 kmh 30.04 in1017.3 mb 0.00 in0.0 mm 0.00 in0.0 mm 0.00 in0.0 mm
10:40 AM 50.5°F10.3°C 46.4°F8.0°C 85% 14.2 mph SW22.9 kmh SW 19.9 mph32.0 kmh 30.04 in1017.3 mb 0.00 in0.0 mm 0.00 in0.0 mm 0.00 in0.0 mm
10:45 AM 50.7°F10.4°C 46.4°F8.0°C 85% 12.8 mph SW20.6 kmh SW 17.7 mph28.5 kmh 30.04 in1017.3 mb 0.00 in0.0 mm 0.00 in0.0 mm 0.00 in0.0 mm
10:50 AM 50.9°F10.5°C 48.2°F9.0°C 85% 10.4 mph WSW16.7 kmh WSW 15.9 mph25.6 kmh 30.04 in1017.3 mb 0.00 in0.0 mm 0.00 in0.0 mm 0.00 in0.0 mm
10:55 AM 51.1°F10.6°C 46.4°F8.0°C 84% 9.0 mph SW14.5 kmh SW 12.5 mph20.1 kmh 30.04 in1017.3 mb 0.00 in0.0 mm 0.00 in0.0 mm 0.00 in0.0 mm
11:00 AM 51.1°F10.6°C 46.4°F8.0°C 84% 9.2 mph WSW14.8 kmh WSW 13.0 mph20.9 kmh 30.04 in1017.3 mb 0.00 in0.0 mm 0.00 in0.0 mm 0.00 in0.0 mm
11:05 AM 51.3°F10.7°C 46.4°F8.0°C 84% 9.6 mph WSW15.4 kmh WSW 13.0 mph20.9 kmh 30.04 in1017.3 mb 0.00 in0.0 mm 0.00 in0.0 mm 0.00 in0.0 mm
11:10 AM 51.3°F10.7°C 46.4°F8.0°C 84% 10.4 mph WSW16.7 kmh WSW 12.8 mph20.6 kmh 30.04 in1017.3 mb 0.00 in0.0 mm 0.00 in0.0 mm 0.00 in0.0 mm
11:15 AM 51.4°F10.8°C 46.4°F8.0°C 84% 9.4 mph W15.1 kmh W 12.8 mph20.6 kmh 30.04 in1017.3 mb 0.00 in0.0 mm 0.00 in0.0 mm 0.00 in0.0 mm
11:20 AM 51.4°F10.8°C 46.4°F8.0°C 84% 8.9 mph WSW14.3 kmh WSW 14.5 mph23.3 kmh 30.04 in1017.3 mb 0.00 in0.0 mm 0.00 in0.0 mm 0.00 in0.0 mm
11:25 AM 51.8°F11.0°C 46.4°F8.0°C 83% 9.1 mph WSW14.6 kmh WSW 18.6 mph29.9 kmh 30.04 in1017.3 mb 0.00 in0.0 mm 0.00 in0.0 mm 0.00 in0.0 mm
11:30 AM 52.2°F11.2°C 48.2°F9.0°C 83% 10.9 mph WSW17.5 kmh WSW 18.6 mph29.9 kmh 30.04 in1017.3 mb 0.00 in0.0 mm 0.00 in0.0 mm 0.00 in0.0 mm
11:35 AM 52.2°F11.2°C 48.2°F9.0°C 82% 11.3 mph WSW18.2 kmh WSW 17.2 mph27.7 kmh 30.04 in1017.3 mb 0.00 in0.0 mm 0.00 in0.0 mm 0.00 in0.0 mm
11:40 AM 52.0°F11.1°C 46.4°F8.0°C 82% 10.4 mph WSW16.7 kmh WSW 13.2 mph21.2 kmh 30.01 in1016.3 mb 0.00 in0.0 mm 0.00 in0.0 mm 0.00 in0.0 mm
11:45 AM 52.0°F11.1°C 46.4°F8.0°C 82% 11.0 mph WSW17.7 kmh WSW 14.8 mph23.8 kmh 30.01 in1016.3 mb 0.00 in0.0 mm 0.00 in0.0 mm 0.00 in0.0 mm
11:50 AM 52.0°F11.1°C 46.4°F8.0°C 82% 10.2 mph WSW16.4 kmh WSW 14.8 mph23.8 kmh 30.01 in1016.3 mb 0.00 in0.0 mm 0.00 in0.0 mm 0.00 in0.0 mm
11:55 AM 52.0°F11.1°C 46.4°F8.0°C 82% 8.1 mph WSW13.0 kmh WSW 12.3 mph19.8 kmh 30.04 in1017.3 mb 0.00 in0.0 mm 0.00 in0.0 mm 0.00 in0.0 mm
12:00 PM 52.2°F11.2°C 48.2°F9.0°C 82% 7.0 mph WSW11.3 kmh WSW 11.0 mph17.7 kmh 30.04 in1017.3 mb 0.00 in0.0 mm 0.00 in0.0 mm 0.00 in0.0 mm
12:05 PM 52.2°F11.2°C 48.2°F9.0°C 82% 7.0 mph WSW11.3 kmh WSW 11.0 mph17.7 kmh 30.04 in1017.3 mb 0.00 in0.0 mm 0.00 in0.0 mm 0.00 in0.0 mm
12:10 PM 52.3°F11.3°C 46.4°F8.0°C 81% 8.5 mph WSW13.7 kmh WSW 13.2 mph21.2 kmh 30.01 in1016.3 mb 0.00 in0.0 mm 0.00 in0.0 mm 0.00 in0.0 mm
12:15 PM 52.3°F11.3°C 46.4°F8.0°C 81% 9.9 mph WSW15.9 kmh WSW 14.5 mph23.3 kmh 30.01 in1016.3 mb 0.00 in0.0 mm 0.00 in0.0 mm 0.00 in0.0 mm
12:20 PM 52.3°F11.3°C 46.4°F8.0°C 81% 11.6 mph WSW18.7 kmh WSW 16.3 mph26.2 kmh 30.01 in1016.3 mb 0.00 in0.0 mm 0.00 in0.0 mm 0.00 in0.0 mm
12:25 PM 52.3°F11.3°C 46.4°F8.0°C 80% 13.2 mph WSW21.2 kmh WSW 19.9 mph32.0 kmh 30.01 in1016.3 mb 0.00 in0.0 mm 0.00 in0.0 mm 0.00 in0.0 mm
12:30 PM 52.3°F11.3°C 46.4°F8.0°C 80% 14.3 mph WSW23.0 kmh WSW 19.9 mph32.0 kmh 30.01 in1016.3 mb 0.00 in0.0 mm 0.00 in0.0 mm 0.00 in0.0 mm
12:35 PM 52.5°F11.4°C 46.4°F8.0°C 80% 14.6 mph WSW23.5 kmh WSW 22.4 mph36.0 kmh 30.01 in1016.3 mb 0.00 in0.0 mm 0.00 in0.0 mm 0.00 in0.0 mm
12:40 PM 52.5°F11.4°C 46.4°F8.0°C 80% 13.5 mph W21.7 kmh W 22.4 mph36.0 kmh 29.98 in1015.2 mb 0.00 in0.0 mm 0.00 in0.0 mm 0.00 in0.0 mm
12:45 PM 52.3°F11.3°C 46.4°F8.0°C 80% 13.5 mph SW21.7 kmh SW 17.2 mph27.7 kmh 29.98 in1015.2 mb 0.00 in0.0 mm 0.00 in0.0 mm 0.00 in0.0 mm
12:50 PM 52.3°F11.3°C 46.4°F8.0°C 80% 13.3 mph SW21.4 kmh SW 17.2 mph27.7 kmh 29.98 in1015.2 mb 0.00 in0.0 mm 0.00 in0.0 mm 0.00 in0.0 mm
12:55 PM 52.2°F11.2°C 46.4°F8.0°C 80% 11.6 mph WSW18.7 kmh WSW 16.3 mph26.2 kmh 29.98 in1015.2 mb 0.00 in0.0 mm 0.00 in0.0 mm 0.00 in0.0 mm
01:00 PM 52.2°F11.2°C 46.4°F8.0°C 80% 10.8 mph WSW17.4 kmh WSW 16.3 mph26.2 kmh 29.98 in1015.2 mb 0.00 in0.0 mm 0.00 in0.0 mm 0.00 in0.0 mm
01:05 PM 52.0°F11.1°C 46.4°F8.0°C 80% 9.8 mph WSW15.8 kmh WSW 19.5 mph31.4 kmh 29.98 in1015.2 mb 0.00 in0.0 mm 0.00 in0.0 mm 0.00 in0.0 mm
01:10 PM 51.8°F11.0°C 46.4°F8.0°C 80% 10.0 mph WSW16.1 kmh WSW 19.5 mph31.4 kmh 29.98 in1015.2 mb 0.00 in0.0 mm 0.00 in0.0 mm 0.00 in0.0 mm
01:15 PM 51.8°F11.0°C 46.4°F8.0°C 81% 8.9 mph WSW14.3 kmh WSW 13.0 mph20.9 kmh 29.98 in1015.2 mb 0.00 in0.0 mm 0.00 in0.0 mm 0.00 in0.0 mm
01:20 PM 51.6°F10.9°C 46.4°F8.0°C 81% 8.4 mph WSW13.5 kmh WSW 13.0 mph20.9 kmh 29.98 in1015.2 mb 0.00 in0.0 mm 0.00 in0.0 mm 0.00 in0.0 mm
01:25 PM 51.6°F10.9°C 46.4°F8.0°C 81% 9.0 mph W14.5 kmh W 17.9 mph28.8 kmh 29.95 in1014.2 mb 0.00 in0.0 mm 0.00 in0.0 mm 0.00 in0.0 mm
01:30 PM 51.6°F10.9°C 46.4°F8.0°C 81% 10.6 mph WSW17.1 kmh WSW 17.9 mph28.8 kmh 29.95 in1014.2 mb 0.00 in0.0 mm 0.00 in0.0 mm 0.00 in0.0 mm
01:35 PM 51.4°F10.8°C 46.4°F8.0°C 81% 10.2 mph WSW16.4 kmh WSW 17.9 mph28.8 kmh 29.95 in1014.2 mb 0.00 in0.0 mm 0.00 in0.0 mm 0.00 in0.0 mm
01:40 PM 51.4°F10.8°C 46.4°F8.0°C 81% 8.2 mph W13.2 kmh W 14.3 mph23.0 kmh 29.95 in1014.2 mb 0.00 in0.0 mm 0.00 in0.0 mm 0.00 in0.0 mm
01:45 PM 51.4°F10.8°C 46.4°F8.0°C 81% 8.6 mph W13.8 kmh W 14.3 mph23.0 kmh 29.95 in1014.2 mb 0.00 in0.0 mm 0.00 in0.0 mm 0.00 in0.0 mm
01:50 PM 51.4°F10.8°C 46.4°F8.0°C 81% 8.0 mph WSW12.9 kmh WSW 14.3 mph23.0 kmh 29.95 in1014.2 mb 0.00 in0.0 mm 0.00 in0.0 mm 0.00 in0.0 mm
01:55 PM 51.4°F10.8°C 46.4°F8.0°C 82% 7.3 mph WSW11.7 kmh WSW 11.0 mph17.7 kmh 29.95 in1014.2 mb 0.00 in0.0 mm 0.00 in0.0 mm 0.00 in0.0 mm
02:00 PM 51.3°F10.7°C 46.4°F8.0°C 82% 8.9 mph WSW14.3 kmh WSW 12.1 mph19.5 kmh 29.95 in1014.2 mb 0.00 in0.0 mm 0.00 in0.0 mm 0.00 in0.0 mm
02:05 PM 51.3°F10.7°C 46.4°F8.0°C 82% 9.3 mph WSW15.0 kmh WSW 12.1 mph19.5 kmh 29.95 in1014.2 mb 0.00 in0.0 mm 0.00 in0.0 mm 0.00 in0.0 mm
02:10 PM 51.3°F10.7°C 46.4°F8.0°C 82% 9.2 mph WSW14.8 kmh WSW 12.1 mph19.5 kmh 29.95 in1014.2 mb 0.00 in0.0 mm 0.00 in0.0 mm 0.00 in0.0 mm
02:15 PM 51.3°F10.7°C 46.4°F8.0°C 82% 9.5 mph WSW15.3 kmh WSW 13.4 mph21.6 kmh 29.95 in1014.2 mb 0.00 in0.0 mm 0.00 in0.0 mm 0.00 in0.0 mm
02:20 PM 51.3°F10.7°C 46.4°F8.0°C 82% 8.5 mph WSW13.7 kmh WSW 13.4 mph21.6 kmh 29.95 in1014.2 mb 0.00 in0.0 mm 0.00 in0.0 mm 0.00 in0.0 mm
02:25 PM 51.3°F10.7°C 46.4°F8.0°C 82% 9.7 mph W15.6 kmh W 13.4 mph21.6 kmh 29.92 in1013.2 mb 0.00 in0.0 mm 0.00 in0.0 mm 0.00 in0.0 mm
02:30 PM 51.3°F10.7°C 46.4°F8.0°C 82% 10.5 mph WSW16.9 kmh WSW 13.4 mph21.6 kmh 29.92 in1013.2 mb 0.00 in0.0 mm 0.00 in0.0 mm 0.00 in0.0 mm
02:35 PM 51.3°F10.7°C 46.4°F8.0°C 82% 10.1 mph SW16.3 kmh SW 18.8 mph30.3 kmh 29.92 in1013.2 mb 0.00 in0.0 mm 0.00 in0.0 mm 0.00 in0.0 mm
02:40 PM 51.3°F10.7°C 46.4°F8.0°C 82% 11.5 mph SW18.5 kmh SW 18.8 mph30.3 kmh 29.92 in1013.2 mb 0.00 in0.0 mm 0.00 in0.0 mm 0.00 in0.0 mm
02:45 PM 51.3°F10.7°C 46.4°F8.0°C 82% 10.6 mph SW17.1 kmh SW 18.8 mph30.3 kmh 29.92 in1013.2 mb 0.00 in0.0 mm 0.00 in0.0 mm 0.00 in0.0 mm
02:50 PM 51.4°F10.8°C 46.4°F8.0°C 82% 9.2 mph W14.8 kmh W 13.2 mph21.2 kmh 29.92 in1013.2 mb 0.00 in0.0 mm 0.00 in0.0 mm 0.00 in0.0 mm
02:55 PM 51.4°F10.8°C 46.4°F8.0°C 82% 10.4 mph WSW16.7 kmh WSW 13.9 mph22.4 kmh 29.92 in1013.2 mb 0.00 in0.0 mm 0.00 in0.0 mm 0.00 in0.0 mm
03:00 PM 51.4°F10.8°C 46.4°F8.0°C 82% 11.0 mph WSW17.7 kmh WSW 15.2 mph24.5 kmh 29.92 in1013.2 mb 0.00 in0.0 mm 0.00 in0.0 mm 0.00 in0.0 mm
03:05 PM 51.4°F10.8°C 46.4°F8.0°C 82% 10.7 mph WSW17.2 kmh WSW 15.2 mph24.5 kmh 29.92 in1013.2 mb 0.00 in0.0 mm 0.00 in0.0 mm 0.00 in0.0 mm
03:10 PM 51.4°F10.8°C 46.4°F8.0°C 81% 10.8 mph WSW17.4 kmh WSW 14.3 mph23.0 kmh 29.92 in1013.2 mb 0.00 in0.0 mm 0.00 in0.0 mm 0.00 in0.0 mm
03:15 PM 51.4°F10.8°C 46.4°F8.0°C 81% 9.9 mph W15.9 kmh W 14.8 mph23.8 kmh 29.92 in1013.2 mb 0.00 in0.0 mm 0.00 in0.0 mm 0.00 in0.0 mm
03:20 PM 51.4°F10.8°C 46.4°F8.0°C 81% 7.8 mph WSW12.6 kmh WSW 14.8 mph23.8 kmh 29.92 in1013.2 mb 0.00 in0.0 mm 0.00 in0.0 mm 0.00 in0.0 mm
03:25 PM 51.4°F10.8°C 46.4°F8.0°C 81% 9.1 mph WSW14.6 kmh WSW 13.2 mph21.2 kmh 29.92 in1013.2 mb 0.00 in0.0 mm 0.00 in0.0 mm 0.00 in0.0 mm
03:30 PM 51.6°F10.9°C 46.4°F8.0°C 81% 8.6 mph WSW13.8 kmh WSW 13.2 mph21.2 kmh 29.92 in1013.2 mb 0.00 in0.0 mm 0.00 in0.0 mm 0.00 in0.0 mm
03:35 PM 51.4°F10.8°C 46.4°F8.0°C 80% 7.0 mph WSW11.3 kmh WSW 10.1 mph16.3 kmh 29.92 in1013.2 mb 0.00 in0.0 mm 0.00 in0.0 mm 0.00 in0.0 mm
03:40 PM 51.4°F10.8°C 46.4°F8.0°C 80% 7.0 mph W11.3 kmh W 10.1 mph16.3 kmh 29.92 in1013.2 mb 0.00 in0.0 mm 0.00 in0.0 mm 0.00 in0.0 mm
03:45 PM 51.1°F10.6°C 44.6°F7.0°C 79% 6.8 mph NW10.9 kmh NW 14.5 mph23.3 kmh 29.92 in1013.2 mb 0.00 in0.0 mm 0.00 in0.0 mm 0.00 in0.0 mm
03:50 PM 50.7°F10.4°C 44.6°F7.0°C 79% 7.2 mph NW11.6 kmh NW 14.5 mph23.3 kmh 29.92 in1013.2 mb 0.00 in0.0 mm 0.00 in0.0 mm 0.00 in0.0 mm
03:55 PM 50.0°F10.0°C 42.8°F6.0°C 78% 7.1 mph NW11.4 kmh NW 10.7 mph17.2 kmh 29.95 in1014.2 mb 0.00 in0.0 mm 0.00 in0.0 mm 0.00 in0.0 mm
04:00 PM 50.0°F10.0°C 42.8°F6.0°C 78% 8.0 mph NW12.9 kmh NW 15.2 mph24.5 kmh 29.95 in1014.2 mb 0.00 in0.0 mm 0.00 in0.0 mm 0.00 in0.0 mm
04:05 PM 49.6°F9.8°C 42.8°F6.0°C 76% 10.7 mph W17.2 kmh W 17.7 mph28.5 kmh 29.95 in1014.2 mb 0.00 in0.0 mm 0.00 in0.0 mm 0.00 in0.0 mm
04:10 PM 49.3°F9.6°C 42.8°F6.0°C 74% 11.6 mph W18.7 kmh W 17.7 mph28.5 kmh 29.95 in1014.2 mb 0.00 in0.0 mm 0.00 in0.0 mm 0.00 in0.0 mm
04:15 PM 48.9°F9.4°C 41.0°F5.0°C 72% 10.2 mph WNW16.4 kmh WNW 17.0 mph27.4 kmh 29.95 in1014.2 mb 0.00 in0.0 mm 0.00 in0.0 mm 0.00 in0.0 mm
04:20 PM 48.4°F9.1°C 39.2°F4.0°C 70% 9.5 mph W15.3 kmh W 13.2 mph21.2 kmh 29.95 in1014.2 mb 0.00 in0.0 mm 0.00 in0.0 mm 0.00 in0.0 mm
04:25 PM 48.2°F9.0°C 39.2°F4.0°C 70% 9.5 mph W15.3 kmh W 10.5 mph16.9 kmh 29.95 in1014.2 mb 0.00 in0.0 mm 0.00 in0.0 mm 0.00 in0.0 mm
04:30 PM 48.0°F8.9°C 39.2°F4.0°C 69% 9.7 mph WNW15.6 kmh WNW 10.7 mph17.2 kmh 29.95 in1014.2 mb 0.00 in0.0 mm 0.00 in0.0 mm 0.00 in0.0 mm
04:35 PM 47.7°F8.7°C 37.4°F3.0°C 69% 9.1 mph WNW14.6 kmh WNW 12.1 mph19.5 kmh 29.95 in1014.2 mb 0.00 in0.0 mm 0.00 in0.0 mm 0.00 in0.0 mm
04:40 PM 47.5°F8.6°C 37.4°F3.0°C 69% 9.0 mph W14.5 kmh W 12.8 mph20.6 kmh 29.95 in1014.2 mb 0.00 in0.0 mm 0.00 in0.0 mm 0.00 in0.0 mm
04:45 PM 47.3°F8.5°C 37.4°F3.0°C 68% 8.5 mph WSW13.7 kmh WSW 12.8 mph20.6 kmh 29.95 in1014.2 mb 0.00 in0.0 mm 0.00 in0.0 mm 0.00 in0.0 mm
04:50 PM 47.3°F8.5°C 37.4°F3.0°C 68% 9.3 mph W15.0 kmh W 14.5 mph23.3 kmh 29.95 in1014.2 mb 0.00 in0.0 mm 0.00 in0.0 mm 0.00 in0.0 mm
04:55 PM 47.3°F8.5°C 37.4°F3.0°C 68% 9.5 mph W15.3 kmh W 14.5 mph23.3 kmh 29.98 in1015.2 mb 0.00 in0.0 mm 0.00 in0.0 mm 0.00 in0.0 mm
05:00 PM 46.9°F8.3°C 37.4°F3.0°C 68% 8.1 mph W13.0 kmh W 13.0 mph20.9 kmh 29.98 in1015.2 mb 0.00 in0.0 mm 0.00 in0.0 mm 0.00 in0.0 mm
05:05 PM 47.1°F8.4°C 37.4°F3.0°C 67% 9.2 mph WSW14.8 kmh WSW 15.4 mph24.8 kmh 29.98 in1015.2 mb 0.00 in0.0 mm 0.00 in0.0 mm 0.00 in0.0 mm
05:10 PM 46.9°F8.3°C 37.4°F3.0°C 67% 9.9 mph WSW15.9 kmh WSW 15.4 mph24.8 kmh 29.98 in1015.2 mb 0.00 in0.0 mm 0.00 in0.0 mm 0.00 in0.0 mm
05:15 PM 46.9°F8.3°C 37.4°F3.0°C 67% 10.5 mph W16.9 kmh W 17.7 mph28.5 kmh 29.98 in1015.2 mb 0.00 in0.0 mm 0.00 in0.0 mm 0.00 in0.0 mm
05:20 PM 46.8°F8.2°C 35.6°F2.0°C 66% 11.8 mph WSW19.0 kmh WSW 17.7 mph28.5 kmh 29.98 in1015.2 mb 0.00 in0.0 mm 0.00 in0.0 mm 0.00 in0.0 mm
05:25 PM 46.8°F8.2°C 35.6°F2.0°C 66% 10.3 mph WSW16.6 kmh WSW 14.8 mph23.8 kmh 29.95 in1014.2 mb 0.00 in0.0 mm 0.00 in0.0 mm 0.00 in0.0 mm
05:30 PM 46.4°F8.0°C 37.4°F3.0°C 67% 9.3 mph W15.0 kmh W 12.8 mph20.6 kmh 29.95 in1014.2 mb 0.00 in0.0 mm 0.00 in0.0 mm 0.00 in0.0 mm
05:35 PM 46.4°F8.0°C 37.4°F3.0°C 67% 8.7 mph W14.0 kmh W 14.3 mph23.0 kmh 29.95 in1014.2 mb 0.00 in0.0 mm 0.00 in0.0 mm 0.00 in0.0 mm
05:40 PM 46.6°F8.1°C 37.4°F3.0°C 67% 9.8 mph WSW15.8 kmh WSW 16.1 mph25.9 kmh 29.95 in1014.2 mb 0.00 in0.0 mm 0.00 in0.0 mm 0.00 in0.0 mm
05:45 PM 46.4°F8.0°C 37.4°F3.0°C 67% 9.6 mph WSW15.4 kmh WSW 16.1 mph25.9 kmh 29.95 in1014.2 mb 0.00 in0.0 mm 0.00 in0.0 mm 0.00 in0.0 mm
05:50 PM 46.2°F7.9°C 35.6°F2.0°C 67% 8.7 mph WSW14.0 kmh WSW 12.5 mph20.1 kmh 29.95 in1014.2 mb 0.00 in0.0 mm 0.00 in0.0 mm 0.00 in0.0 mm
05:55 PM 46.4°F8.0°C 37.4°F3.0°C 67% 10.0 mph W16.1 kmh W 12.8 mph20.6 kmh 29.95 in1014.2 mb 0.00 in0.0 mm 0.00 in0.0 mm 0.00 in0.0 mm
06:00 PM 46.6°F8.1°C 35.6°F2.0°C 66% 11.9 mph W19.2 kmh W 19.0 mph30.6 kmh 29.95 in1014.2 mb 0.00 in0.0 mm 0.00 in0.0 mm 0.00 in0.0 mm
06:05 PM 46.4°F8.0°C 35.6°F2.0°C 66% 12.2 mph W19.6 kmh W 19.0 mph30.6 kmh 29.95 in1014.2 mb 0.00 in0.0 mm 0.00 in0.0 mm 0.00 in0.0 mm
06:10 PM 46.4°F8.0°C 35.6°F2.0°C 66% 11.2 mph WSW18.0 kmh WSW 15.9 mph25.6 kmh 29.95 in1014.2 mb 0.00 in0.0 mm 0.00 in0.0 mm 0.00 in0.0 mm
06:15 PM 46.2°F7.9°C 35.6°F2.0°C 67% 10.5 mph W16.9 kmh W 15.9 mph25.6 kmh 29.95 in1014.2 mb 0.00 in0.0 mm 0.00 in0.0 mm 0.00 in0.0 mm
06:20 PM 46.2°F7.9°C 35.6°F2.0°C 66% 8.8 mph WSW14.2 kmh WSW 10.7 mph17.2 kmh 29.95 in1014.2 mb 0.00 in0.0 mm 0.00 in0.0 mm 0.00 in0.0 mm
06:25 PM 46.0°F7.8°C 35.6°F2.0°C 67% 8.0 mph WSW12.9 kmh WSW 12.5 mph20.1 kmh 29.98 in1015.2 mb 0.00 in0.0 mm 0.00 in0.0 mm 0.00 in0.0 mm
06:30 PM 46.2°F7.9°C 35.6°F2.0°C 66% 10.0 mph WSW16.1 kmh WSW 17.4 mph28.0 kmh 29.98 in1015.2 mb 0.00 in0.0 mm 0.00 in0.0 mm 0.00 in0.0 mm
06:35 PM 46.0°F7.8°C 35.6°F2.0°C 66% 9.3 mph WSW15.0 kmh WSW 17.4 mph28.0 kmh 29.98 in1015.2 mb 0.00 in0.0 mm 0.00 in0.0 mm 0.00 in0.0 mm
06:40 PM 46.0°F7.8°C 35.6°F2.0°C 66% 6.8 mph W10.9 kmh W 15.4 mph24.8 kmh 29.98 in1015.2 mb 0.00 in0.0 mm 0.00 in0.0 mm 0.00 in0.0 mm
06:45 PM 46.0°F7.8°C 35.6°F2.0°C 66% 8.7 mph W14.0 kmh W 15.4 mph24.8 kmh 29.98 in1015.2 mb 0.00 in0.0 mm 0.00 in0.0 mm 0.00 in0.0 mm
06:50 PM 45.9°F7.7°C 35.6°F2.0°C 66% 9.9 mph W15.9 kmh W 15.4 mph24.8 kmh 29.98 in1015.2 mb 0.00 in0.0 mm 0.00 in0.0 mm 0.00 in0.0 mm
06:55 PM 46.0°F7.8°C 35.6°F2.0°C 66% 9.3 mph WSW15.0 kmh WSW 15.4 mph24.8 kmh 29.95 in1014.2 mb 0.00 in0.0 mm 0.00 in0.0 mm 0.00 in0.0 mm
07:00 PM 46.0°F7.8°C 35.6°F2.0°C 66% 10.5 mph WSW16.9 kmh WSW 19.7 mph31.7 kmh 29.95 in1014.2 mb 0.00 in0.0 mm 0.00 in0.0 mm 0.00 in0.0 mm
07:05 PM 45.9°F7.7°C 35.6°F2.0°C 66% 10.5 mph WSW16.9 kmh WSW 19.7 mph31.7 kmh 29.95 in1014.2 mb 0.00 in0.0 mm 0.00 in0.0 mm 0.00 in0.0 mm
07:10 PM 46.0°F7.8°C 35.6°F2.0°C 66% 8.7 mph WSW14.0 kmh WSW 13.0 mph20.9 kmh 29.95 in1014.2 mb 0.00 in0.0 mm 0.00 in0.0 mm 0.00 in0.0 mm
07:15 PM 46.0°F7.8°C 35.6°F2.0°C 65% 10.5 mph WSW16.9 kmh WSW 18.6 mph29.9 kmh 29.95 in1014.2 mb 0.00 in0.0 mm 0.00 in0.0 mm 0.00 in0.0 mm
07:20 PM 46.0°F7.8°C 35.6°F2.0°C 65% 12.1 mph WSW19.5 kmh WSW 18.6 mph29.9 kmh 29.95 in1014.2 mb 0.00 in0.0 mm 0.00 in0.0 mm 0.00 in0.0 mm
07:25 PM 46.0°F7.8°C 35.6°F2.0°C 65% 13.1 mph WSW21.1 kmh WSW 18.6 mph29.9 kmh 29.95 in1014.2 mb 0.00 in0.0 mm 0.00 in0.0 mm 0.00 in0.0 mm
07:30 PM 46.0°F7.8°C 33.8°F1.0°C 64% 13.8 mph WSW22.2 kmh WSW 17.7 mph28.5 kmh 29.95 in1014.2 mb 0.00 in0.0 mm 0.00 in0.0 mm 0.00 in0.0 mm
07:35 PM 45.9°F7.7°C 33.8°F1.0°C 64% 13.2 mph WSW21.2 kmh WSW 22.8 mph36.7 kmh 29.95 in1014.2 mb 0.00 in0.0 mm 0.00 in0.0 mm 0.00 in0.0 mm
07:40 PM 45.9°F7.7°C 33.8°F1.0°C 64% 12.1 mph WSW19.5 kmh WSW 22.8 mph36.7 kmh 29.95 in1014.2 mb 0.00 in0.0 mm 0.00 in0.0 mm 0.00 in0.0 mm
07:45 PM 45.9°F7.7°C 33.8°F1.0°C 64% 12.0 mph WSW19.3 kmh WSW 16.8 mph27.0 kmh 29.95 in1014.2 mb 0.00 in0.0 mm 0.00 in0.0 mm 0.00 in0.0 mm
07:50 PM 46.0°F7.8°C 33.8°F1.0°C 64% 11.3 mph WSW18.2 kmh WSW 16.8 mph27.0 kmh 29.95 in1014.2 mb 0.00 in0.0 mm 0.00 in0.0 mm 0.00 in0.0 mm
07:55 PM 45.9°F7.7°C 33.8°F1.0°C 64% 11.5 mph WSW18.5 kmh WSW 19.2 mph30.9 kmh 29.95 in1014.2 mb 0.00 in0.0 mm 0.00 in0.0 mm 0.00 in0.0 mm
08:00 PM 45.7°F7.6°C 33.8°F1.0°C 64% 9.8 mph WSW15.8 kmh WSW 19.2 mph30.9 kmh 29.95 in1014.2 mb 0.00 in0.0 mm 0.00 in0.0 mm 0.00 in0.0 mm
08:05 PM 45.7°F7.6°C 33.8°F1.0°C 64% 9.0 mph W14.5 kmh W 12.3 mph19.8 kmh 29.95 in1014.2 mb 0.00 in0.0 mm 0.00 in0.0 mm 0.00 in0.0 mm
08:10 PM 45.5°F7.5°C 35.6°F2.0°C 65% 9.2 mph W14.8 kmh W 12.5 mph20.1 kmh 29.95 in1014.2 mb 0.00 in0.0 mm 0.00 in0.0 mm 0.00 in0.0 mm
08:15 PM 45.7°F7.6°C 33.8°F1.0°C 64% 9.7 mph W15.6 kmh W 12.5 mph20.1 kmh 29.95 in1014.2 mb 0.00 in0.0 mm 0.00 in0.0 mm 0.00 in0.0 mm
08:20 PM 45.5°F7.5°C 33.8°F1.0°C 64% 10.3 mph W16.6 kmh W 13.0 mph20.9 kmh 29.95 in1014.2 mb 0.00 in0.0 mm 0.00 in0.0 mm 0.00 in0.0 mm
08:25 PM 45.7°F7.6°C 33.8°F1.0°C 64% 9.8 mph WSW15.8 kmh WSW 13.0 mph20.9 kmh 29.95 in1014.2 mb 0.00 in0.0 mm 0.00 in0.0 mm 0.00 in0.0 mm
08:30 PM 45.3°F7.4°C 33.8°F1.0°C 64% 8.5 mph WSW13.7 kmh WSW 13.0 mph20.9 kmh 29.95 in1014.2 mb 0.00 in0.0 mm 0.00 in0.0 mm 0.00 in0.0 mm
08:35 PM 45.7°F7.6°C 33.8°F1.0°C 64% 7.9 mph WSW12.7 kmh WSW 10.7 mph17.2 kmh 29.95 in1014.2 mb 0.00 in0.0 mm 0.00 in0.0 mm 0.00 in0.0 mm
08:40 PM 45.3°F7.4°C 33.8°F1.0°C 64% 7.8 mph WSW12.6 kmh WSW 10.7 mph17.2 kmh 29.95 in1014.2 mb 0.00 in0.0 mm 0.00 in0.0 mm 0.00 in0.0 mm
08:45 PM 45.5°F7.5°C 35.6°F2.0°C 65% 7.4 mph W11.9 kmh W 14.5 mph23.3 kmh 29.95 in1014.2 mb 0.00 in0.0 mm 0.00 in0.0 mm 0.00 in0.0 mm
08:50 PM 45.3°F7.4°C 33.8°F1.0°C 65% 7.8 mph WSW12.6 kmh WSW 14.5 mph23.3 kmh 29.95 in1014.2 mb 0.00 in0.0 mm 0.00 in0.0 mm 0.00 in0.0 mm
08:55 PM 45.1°F7.3°C 33.8°F1.0°C 65% 7.6 mph W12.2 kmh W 14.1 mph22.7 kmh 29.95 in1014.2 mb 0.00 in0.0 mm 0.00 in0.0 mm 0.00 in0.0 mm
09:00 PM 45.1°F7.3°C 33.8°F1.0°C 65% 7.7 mph W12.4 kmh W 14.1 mph22.7 kmh 29.95 in1014.2 mb 0.00 in0.0 mm 0.00 in0.0 mm 0.00 in0.0 mm
09:05 PM 45.0°F7.2°C 33.8°F1.0°C 65% 6.7 mph W10.8 kmh W 9.8 mph15.8 kmh 29.95 in1014.2 mb 0.00 in0.0 mm 0.00 in0.0 mm 0.00 in0.0 mm
09:10 PM 45.0°F7.2°C 33.8°F1.0°C 65% 6.3 mph W10.1 kmh W 10.3 mph16.6 kmh 29.95 in1014.2 mb 0.00 in0.0 mm 0.00 in0.0 mm 0.00 in0.0 mm
09:15 PM 44.8°F7.1°C 33.8°F1.0°C 65% 7.1 mph WSW11.4 kmh WSW 10.3 mph16.6 kmh 29.95 in1014.2 mb 0.00 in0.0 mm 0.00 in0.0 mm 0.00 in0.0 mm
09:20 PM 44.8°F7.1°C 33.8°F1.0°C 66% 7.6 mph WSW12.2 kmh WSW 11.9 mph19.2 kmh 29.95 in1014.2 mb 0.00 in0.0 mm 0.00 in0.0 mm 0.00 in0.0 mm
09:25 PM 44.6°F7.0°C 33.8°F1.0°C 66% 7.3 mph W11.7 kmh W 12.5 mph20.1 kmh 29.95 in1014.2 mb 0.00 in0.0 mm 0.00 in0.0 mm 0.00 in0.0 mm
09:30 PM 44.8°F7.1°C 33.8°F1.0°C 66% 8.1 mph W13.0 kmh W 12.5 mph20.1 kmh 29.95 in1014.2 mb 0.00 in0.0 mm 0.00 in0.0 mm 0.00 in0.0 mm
09:35 PM 45.3°F7.4°C 33.8°F1.0°C 66% 11.0 mph W17.7 kmh W 18.6 mph29.9 kmh 29.95 in1014.2 mb 0.00 in0.0 mm 0.00 in0.0 mm 0.00 in0.0 mm
09:40 PM 45.5°F7.5°C 35.6°F2.0°C 65% 11.5 mph W18.5 kmh W 18.6 mph29.9 kmh 29.95 in1014.2 mb 0.00 in0.0 mm 0.00 in0.0 mm 0.00 in0.0 mm
09:45 PM 45.1°F7.3°C 33.8°F1.0°C 66% 10.2 mph W16.4 kmh W 16.6 mph26.7 kmh 29.95 in1014.2 mb 0.00 in0.0 mm 0.00 in0.0 mm 0.00 in0.0 mm
09:50 PM 45.5°F7.5°C 35.6°F2.0°C 66% 9.8 mph W15.8 kmh W 16.6 mph26.7 kmh 29.95 in1014.2 mb 0.00 in0.0 mm 0.00 in0.0 mm 0.00 in0.0 mm
09:55 PM 45.3°F7.4°C 33.8°F1.0°C 65% 11.7 mph WNW18.8 kmh WNW 17.0 mph27.4 kmh 29.95 in1014.2 mb 0.00 in0.0 mm 0.00 in0.0 mm 0.00 in0.0 mm
10:00 PM 45.3°F7.4°C 33.8°F1.0°C 65% 12.7 mph WNW20.4 kmh WNW 17.0 mph27.4 kmh 29.95 in1014.2 mb 0.00 in0.0 mm 0.00 in0.0 mm 0.00 in0.0 mm
10:05 PM 45.5°F7.5°C 35.6°F2.0°C 65% 11.1 mph W17.9 kmh W 17.2 mph27.7 kmh 29.95 in1014.2 mb 0.00 in0.0 mm 0.00 in0.0 mm 0.00 in0.0 mm
10:10 PM 45.3°F7.4°C 33.8°F1.0°C 65% 10.0 mph W16.1 kmh W 17.4 mph28.0 kmh 29.95 in1014.2 mb 0.00 in0.0 mm 0.00 in0.0 mm 0.00 in0.0 mm
10:15 PM 45.3°F7.4°C 33.8°F1.0°C 65% 10.3 mph W16.6 kmh W 17.4 mph28.0 kmh 29.95 in1014.2 mb 0.00 in0.0 mm 0.00 in0.0 mm 0.00 in0.0 mm
10:20 PM 45.7°F7.6°C 35.6°F2.0°C 65% 10.2 mph W16.4 kmh W 14.8 mph23.8 kmh 29.95 in1014.2 mb 0.00 in0.0 mm 0.00 in0.0 mm 0.00 in0.0 mm
10:25 PM 45.5°F7.5°C 33.8°F1.0°C 64% 11.1 mph WSW17.9 kmh WSW 19.5 mph31.4 kmh 29.95 in1014.2 mb 0.00 in0.0 mm 0.00 in0.0 mm 0.00 in0.0 mm
10:30 PM 45.3°F7.4°C 33.8°F1.0°C 65% 11.5 mph W18.5 kmh W 19.5 mph31.4 kmh 29.95 in1014.2 mb 0.00 in0.0 mm 0.00 in0.0 mm 0.00 in0.0 mm
10:35 PM 45.5°F7.5°C 33.8°F1.0°C 64% 10.6 mph WNW17.1 kmh WNW 19.2 mph30.9 kmh 29.95 in1014.2 mb 0.00 in0.0 mm 0.00 in0.0 mm 0.00 in0.0 mm
10:40 PM 45.1°F7.3°C 33.8°F1.0°C 65% 9.8 mph W15.8 kmh W 19.2 mph30.9 kmh 29.95 in1014.2 mb 0.00 in0.0 mm 0.00 in0.0 mm 0.00 in0.0 mm
10:45 PM 45.0°F7.2°C 33.8°F1.0°C 65% 7.1 mph W11.4 kmh W 14.3 mph23.0 kmh 29.95 in1014.2 mb 0.00 in0.0 mm 0.00 in0.0 mm 0.00 in0.0 mm
10:50 PM 45.1°F7.3°C 33.8°F1.0°C 65% 7.8 mph W12.6 kmh W 14.3 mph23.0 kmh 29.95 in1014.2 mb 0.00 in0.0 mm 0.00 in0.0 mm 0.00 in0.0 mm
10:55 PM 45.1°F7.3°C 33.8°F1.0°C 65% 10.0 mph WSW16.1 kmh WSW 19.2 mph30.9 kmh 29.95 in1014.2 mb 0.00 in0.0 mm 0.00 in0.0 mm 0.00 in0.0 mm
11:00 PM 45.1°F7.3°C 33.8°F1.0°C 65% 10.3 mph W16.6 kmh W 19.2 mph30.9 kmh 29.95 in1014.2 mb 0.00 in0.0 mm 0.00 in0.0 mm 0.00 in0.0 mm
11:05 PM 45.1°F7.3°C 33.8°F1.0°C 65% 9.0 mph W14.5 kmh W 14.1 mph22.7 kmh 29.95 in1014.2 mb 0.13 in3.3 mm 1.56 in39.6 mm 0.13 in3.3 mm
11:10 PM 44.8°F7.1°C 33.8°F1.0°C 65% 10.0 mph W16.1 kmh W 14.5 mph23.3 kmh 29.95 in1014.2 mb 0.13 in3.3 mm 0.00 in0.0 mm 0.13 in3.3 mm
11:15 PM 44.8°F7.1°C 33.8°F1.0°C 65% 9.9 mph W15.9 kmh W 15.2 mph24.5 kmh 29.95 in1014.2 mb 0.13 in3.3 mm 0.00 in0.0 mm 0.13 in3.3 mm
11:20 PM 45.0°F7.2°C 33.8°F1.0°C 65% 10.2 mph WSW16.4 kmh WSW 15.2 mph24.5 kmh 29.95 in1014.2 mb 0.13 in3.3 mm 0.00 in0.0 mm 0.13 in3.3 mm
11:25 PM 45.0°F7.2°C 33.8°F1.0°C 65% 10.8 mph W17.4 kmh W 15.2 mph24.5 kmh 29.95 in1014.2 mb 0.13 in3.3 mm 0.00 in0.0 mm 0.13 in3.3 mm
11:30 PM 44.8°F7.1°C 33.8°F1.0°C 65% 8.5 mph W13.7 kmh W 10.7 mph17.2 kmh 29.95 in1014.2 mb 0.13 in3.3 mm 0.00 in0.0 mm 0.13 in3.3 mm
11:35 PM 45.0°F7.2°C 33.8°F1.0°C 65% 9.3 mph W15.0 kmh W 12.8 mph20.6 kmh 29.95 in1014.2 mb 0.13 in3.3 mm 0.00 in0.0 mm 0.13 in3.3 mm
11:40 PM 44.8°F7.1°C 33.8°F1.0°C 65% 9.9 mph WNW15.9 kmh WNW 12.8 mph20.6 kmh 29.95 in1014.2 mb 0.13 in3.3 mm 0.00 in0.0 mm 0.13 in3.3 mm
11:45 PM 45.0°F7.2°C 33.8°F1.0°C 65% 8.9 mph W14.3 kmh W 12.3 mph19.8 kmh 29.95 in1014.2 mb 0.13 in3.3 mm 0.00 in0.0 mm 0.13 in3.3 mm
11:50 PM 44.8°F7.1°C 33.8°F1.0°C 65% 9.0 mph W14.5 kmh W 12.3 mph19.8 kmh 29.95 in1014.2 mb 0.13 in3.3 mm 0.00 in0.0 mm 0.13 in3.3 mm
11:55 PM 44.8°F7.1°C 33.8°F1.0°C 65% 10.2 mph W16.4 kmh W 12.3 mph19.8 kmh 29.95 in1014.2 mb 0.13 in3.3 mm 0.00 in0.0 mm 0.13 in3.3 mm